MGBUS CYYT-EGLF
Flight info
| Callsign | MGBUS |
|---|---|
| Flight time | N/A |
| Altitude | 41000 |
| Route | ELSIR/M084F410 DCT 51N050W 53N040W 53N030W 53N020W DCT TOBOR/N0480F410 DCT RILED |
| Aircraft | C700/M-SBDGHM1RWXY/LB2 |
Departure
| Time | N/A |
|---|---|
| Airport | St. John's International Airport (CYYT) |
Arrival
| Time | 2026-04-24 15:10 |
|---|---|
| Airport | Farnborough Airport (EGLF) |
| Time | Latitude | Longitude | Altitude | Speed | Heading |
|---|---|---|---|---|---|
| 2026-04-24 14:20 | 52.11078 | -6.83177 | 41235 ft | 471 kts | 100° |
| 2026-04-24 14:20 | 52.10626 | -6.77888 | 41237 ft | 473 kts | 101° |
| 2026-04-24 14:21 | 52.09710 | -6.67258 | 41246 ft | 474 kts | 101° |
| 2026-04-24 14:21 | 52.08789 | -6.56680 | 41245 ft | 471 kts | 101° |
| 2026-04-24 14:22 | 52.07862 | -6.46162 | 41243 ft | 469 kts | 101° |
| 2026-04-24 14:23 | 52.06452 | -6.30361 | 41240 ft | 474 kts | 101° |
| 2026-04-24 14:23 | 52.05490 | -6.19716 | 41245 ft | 476 kts | 101° |
| 2026-04-24 14:24 | 52.04522 | -6.09104 | 41243 ft | 473 kts | 101° |
| 2026-04-24 14:24 | 52.03549 | -5.98566 | 41234 ft | 471 kts | 101° |
| 2026-04-24 14:25 | 52.02567 | -5.88032 | 41230 ft | 473 kts | 101° |
| 2026-04-24 14:25 | 52.01570 | -5.77437 | 41238 ft | 477 kts | 101° |
| 2026-04-24 14:26 | 52.00555 | -5.66767 | 41239 ft | 477 kts | 101° |
| 2026-04-24 14:26 | 51.99537 | -5.56151 | 41235 ft | 474 kts | 101° |
| 2026-04-24 14:27 | 51.98514 | -5.45607 | 41236 ft | 472 kts | 101° |
| 2026-04-24 14:27 | 51.97481 | -5.35061 | 41240 ft | 475 kts | 101° |
| 2026-04-24 14:28 | 51.96432 | -5.24448 | 41239 ft | 478 kts | 101° |
| 2026-04-24 14:28 | 51.95372 | -5.13818 | 41237 ft | 475 kts | 101° |
| 2026-04-24 14:29 | 51.94316 | -5.03339 | 41237 ft | 473 kts | 102° |
| 2026-04-24 14:29 | 51.93248 | -4.92828 | 41241 ft | 475 kts | 102° |
| 2026-04-24 14:30 | 51.92337 | -4.83951 | 41239 ft | 479 kts | 102° |
| 2026-04-24 14:30 | 51.91077 | -4.71685 | 41240 ft | 477 kts | 102° |
| 2026-04-24 14:31 | 51.89948 | -4.61035 | 41246 ft | 481 kts | 102° |
| 2026-04-24 14:31 | 51.88836 | -4.50383 | 41243 ft | 477 kts | 102° |
| 2026-04-24 14:32 | 51.87707 | -4.39834 | 41238 ft | 475 kts | 102° |
| 2026-04-24 14:32 | 51.86575 | -4.29260 | 41242 ft | 479 kts | 102° |
| 2026-04-24 14:33 | 51.85419 | -4.18602 | 41244 ft | 481 kts | 102° |
| 2026-04-24 14:33 | 51.84258 | -4.07965 | 41243 ft | 479 kts | 102° |
| 2026-04-24 14:34 | 51.83093 | -3.97399 | 41242 ft | 476 kts | 102° |
| 2026-04-24 14:34 | 51.81919 | -3.86840 | 41246 ft | 478 kts | 102° |
| 2026-04-24 14:35 | 51.80723 | -3.76179 | 41249 ft | 485 kts | 102° |
| 2026-04-24 14:35 | 51.79511 | -3.65447 | 41179 ft | 484 kts | 102° |
| 2026-04-24 14:35 | 51.78901 | -3.60100 | 40560 ft | 482 kts | 102° |
| 2026-04-24 14:36 | 51.78299 | -3.54827 | 39941 ft | 473 kts | 102° |
| 2026-04-24 14:36 | 51.77707 | -3.49657 | 39342 ft | 463 kts | 102° |
| 2026-04-24 14:36 | 51.77123 | -3.44589 | 38720 ft | 455 kts | 102° |
| 2026-04-24 14:36 | 51.76544 | -3.39607 | 38128 ft | 450 kts | 103° |
| 2026-04-24 14:37 | 51.75963 | -3.34615 | 37536 ft | 457 kts | 102° |
| 2026-04-24 14:37 | 51.75372 | -3.29550 | 36933 ft | 471 kts | 102° |
| 2026-04-24 14:37 | 51.74761 | -3.24334 | 36302 ft | 475 kts | 102° |
| 2026-04-24 14:37 | 51.74161 | -3.19224 | 35701 ft | 475 kts | 102° |
| 2026-04-24 14:38 | 51.73558 | -3.14110 | 35096 ft | 475 kts | 102° |
| 2026-04-24 14:38 | 51.72937 | -3.08876 | 34479 ft | 475 kts | 102° |
| 2026-04-24 14:38 | 51.72318 | -3.03685 | 33819 ft | 478 kts | 102° |
| 2026-04-24 14:38 | 51.71686 | -2.98396 | 33183 ft | 481 kts | 102° |
| 2026-04-24 14:39 | 51.71047 | -2.93071 | 32542 ft | 486 kts | 102° |
| 2026-04-24 14:39 | 51.70393 | -2.87641 | 31890 ft | 490 kts | 102° |
| 2026-04-24 14:39 | 51.69735 | -2.82218 | 31237 ft | 494 kts | 102° |
| 2026-04-24 14:39 | 51.69071 | -2.76770 | 30534 ft | 496 kts | 102° |
| 2026-04-24 14:40 | 51.68413 | -2.71380 | 29841 ft | 495 kts | 102° |
| 2026-04-24 14:40 | 51.67749 | -2.65921 | 29195 ft | 488 kts | 102° |
| 2026-04-24 14:40 | 51.67094 | -2.60585 | 28549 ft | 481 kts | 102° |
| 2026-04-24 14:40 | 51.66444 | -2.55335 | 27926 ft | 476 kts | 102° |
| 2026-04-24 14:41 | 51.65798 | -2.50136 | 27317 ft | 473 kts | 103° |
| 2026-04-24 14:41 | 51.65153 | -2.44942 | 26697 ft | 470 kts | 103° |
| 2026-04-24 14:41 | 51.64512 | -2.39800 | 26083 ft | 468 kts | 103° |
| 2026-04-24 14:41 | 51.63870 | -2.34671 | 25470 ft | 467 kts | 103° |
| 2026-04-24 14:42 | 51.63444 | -2.31289 | 25069 ft | 465 kts | 103° |
| 2026-04-24 14:42 | 51.62587 | -2.24496 | 24263 ft | 459 kts | 103° |
| 2026-04-24 14:42 | 51.61955 | -2.19497 | 23634 ft | 455 kts | 103° |
| 2026-04-24 14:42 | 51.61325 | -2.14544 | 23029 ft | 448 kts | 103° |
| 2026-04-24 14:43 | 51.60704 | -2.09676 | 22453 ft | 441 kts | 103° |
| 2026-04-24 14:43 | 51.60089 | -2.04882 | 21883 ft | 434 kts | 103° |
| 2026-04-24 14:43 | 51.59482 | -2.00153 | 21322 ft | 428 kts | 103° |
| 2026-04-24 14:43 | 51.58880 | -1.95485 | 20764 ft | 422 kts | 103° |
| 2026-04-24 14:44 | 51.58288 | -1.90909 | 20220 ft | 416 kts | 103° |
| 2026-04-24 14:44 | 51.57702 | -1.86385 | 19685 ft | 409 kts | 104° |
| 2026-04-24 14:44 | 51.57125 | -1.81951 | 19149 ft | 402 kts | 104° |
| 2026-04-24 14:44 | 51.56557 | -1.77604 | 18632 ft | 395 kts | 104° |
| 2026-04-24 14:45 | 51.55996 | -1.73323 | 18080 ft | 388 kts | 104° |
| 2026-04-24 14:45 | 51.55438 | -1.69075 | 17577 ft | 390 kts | 104° |
| 2026-04-24 14:45 | 51.54873 | -1.64808 | 17053 ft | 390 kts | 104° |
| 2026-04-24 14:45 | 51.54314 | -1.60576 | 16541 ft | 384 kts | 104° |
| 2026-04-24 14:46 | 51.53765 | -1.56413 | 16040 ft | 378 kts | 104° |
| 2026-04-24 14:46 | 51.53221 | -1.52304 | 15536 ft | 373 kts | 104° |
| 2026-04-24 14:46 | 51.52691 | -1.48328 | 15060 ft | 358 kts | 105° |
| 2026-04-24 14:46 | 51.52191 | -1.44563 | 14611 ft | 338 kts | 104° |
| 2026-04-24 14:47 | 51.51871 | -1.42155 | 14344 ft | 327 kts | 104° |
| 2026-04-24 14:47 | 51.51279 | -1.37745 | 13800 ft | 309 kts | 105° |
| 2026-04-24 14:47 | 51.50841 | -1.34493 | 13412 ft | 296 kts | 105° |
| 2026-04-24 14:47 | 51.50410 | -1.31305 | 13035 ft | 290 kts | 105° |
| 2026-04-24 14:48 | 51.49978 | -1.28134 | 12663 ft | 292 kts | 105° |
| 2026-04-24 14:48 | 51.49282 | -1.25093 | 12283 ft | 291 kts | 119° |
| 2026-04-24 14:48 | 51.48156 | -1.22417 | 11900 ft | 287 kts | 132° |
| 2026-04-24 14:48 | 51.46730 | -1.20305 | 11524 ft | 280 kts | 144° |
| 2026-04-24 14:49 | 51.45052 | -1.18750 | 11157 ft | 279 kts | 155° |
| 2026-04-24 14:49 | 51.43312 | -1.17404 | 10785 ft | 273 kts | 154° |
| 2026-04-24 14:49 | 51.41639 | -1.16083 | 10428 ft | 264 kts | 154° |
| 2026-04-24 14:49 | 51.40011 | -1.14798 | 10074 ft | 257 kts | 154° |
| 2026-04-24 14:50 | 51.38442 | -1.13569 | 9724 ft | 250 kts | 154° |
| 2026-04-24 14:50 | 51.36899 | -1.12361 | 9399 ft | 243 kts | 154° |
| 2026-04-24 14:50 | 51.35432 | -1.11080 | 9068 ft | 238 kts | 145° |
| 2026-04-24 14:50 | 51.34254 | -1.09360 | 8769 ft | 234 kts | 132° |
| 2026-04-24 14:51 | 51.33295 | -1.07208 | 8463 ft | 231 kts | 125° |
| 2026-04-24 14:51 | 51.32396 | -1.05092 | 8170 ft | 228 kts | 126° |
| 2026-04-24 14:51 | 51.31499 | -1.03017 | 7874 ft | 226 kts | 125° |
| 2026-04-24 14:51 | 51.30607 | -1.00951 | 7577 ft | 226 kts | 125° |
| 2026-04-24 14:52 | 51.29717 | -0.98878 | 7283 ft | 226 kts | 125° |
| 2026-04-24 14:52 | 51.28848 | -0.96850 | 6987 ft | 224 kts | 125° |
| 2026-04-24 14:52 | 51.27965 | -0.94799 | 6690 ft | 223 kts | 125° |
| 2026-04-24 14:52 | 51.27097 | -0.92788 | 6384 ft | 222 kts | 124° |
| 2026-04-24 14:53 | 51.26218 | -0.90752 | 6088 ft | 221 kts | 124° |
| 2026-04-24 14:53 | 51.25641 | -0.89407 | 5892 ft | 220 kts | 124° |
| 2026-04-24 14:53 | 51.24790 | -0.87439 | 5597 ft | 211 kts | 124° |
| 2026-04-24 14:53 | 51.23744 | -0.84887 | 5231 ft | 203 kts | 116° |
| 2026-04-24 14:54 | 51.23429 | -0.83481 | 5109 ft | 197 kts | 105° |
| 2026-04-24 14:54 | 51.23092 | -0.81370 | 4952 ft | 199 kts | 105° |
| 2026-04-24 14:54 | 51.22723 | -0.79240 | 4777 ft | 199 kts | 105° |
| 2026-04-24 14:54 | 51.22362 | -0.77125 | 4604 ft | 198 kts | 105° |
| 2026-04-24 14:55 | 51.22000 | -0.74984 | 4430 ft | 200 kts | 105° |
| 2026-04-24 14:55 | 51.21638 | -0.72824 | 4247 ft | 203 kts | 105° |
| 2026-04-24 14:55 | 51.21281 | -0.70664 | 4065 ft | 198 kts | 102° |
| 2026-04-24 14:55 | 51.21228 | -0.68478 | 3881 ft | 196 kts | 84° |
| 2026-04-24 14:56 | 51.21540 | -0.66424 | 3723 ft | 196 kts | 70° |
| 2026-04-24 14:56 | 51.22205 | -0.64496 | 3544 ft | 199 kts | 57° |
| 2026-04-24 14:56 | 51.22989 | -0.62699 | 3384 ft | 196 kts | 58° |
| 2026-04-24 14:56 | 51.23747 | -0.60888 | 3265 ft | 192 kts | 56° |
| 2026-04-24 14:57 | 51.24764 | -0.59524 | 3250 ft | 196 kts | 32° |
| 2026-04-24 14:57 | 51.26112 | -0.58893 | 3258 ft | 209 kts | 8° |
| 2026-04-24 14:57 | 51.27434 | -0.59181 | 3245 ft | 211 kts | 345° |
| 2026-04-24 14:57 | 51.28680 | -0.60416 | 3253 ft | 217 kts | 319° |
| 2026-04-24 14:58 | 51.29495 | -0.62477 | 3247 ft | 224 kts | 290° |
| 2026-04-24 14:58 | 51.29666 | -0.64922 | 3264 ft | 222 kts | 268° |
| 2026-04-24 14:58 | 51.29576 | -0.67395 | 3271 ft | 224 kts | 267° |
| 2026-04-24 14:58 | 51.29490 | -0.69869 | 3273 ft | 222 kts | 268° |
| 2026-04-24 14:59 | 51.29414 | -0.72342 | 3268 ft | 225 kts | 268° |
| 2026-04-24 14:59 | 51.29343 | -0.74855 | 3270 ft | 226 kts | 268° |
| 2026-04-24 14:59 | 51.29266 | -0.77335 | 3266 ft | 223 kts | 268° |
| 2026-04-24 14:59 | 51.29190 | -0.79820 | 3277 ft | 224 kts | 267° |
| 2026-04-24 15:00 | 51.29112 | -0.82262 | 3253 ft | 217 kts | 268° |
| 2026-04-24 15:00 | 51.29042 | -0.84651 | 3281 ft | 211 kts | 267° |
| 2026-04-24 15:00 | 51.28967 | -0.86864 | 3249 ft | 188 kts | 268° |
| 2026-04-24 15:00 | 51.28905 | -0.88859 | 3246 ft | 176 kts | 268° |
| 2026-04-24 15:01 | 51.28841 | -0.90840 | 3265 ft | 183 kts | 267° |
| 2026-04-24 15:01 | 51.28775 | -0.92880 | 3282 ft | 185 kts | 267° |
| 2026-04-24 15:01 | 51.28709 | -0.94967 | 3272 ft | 189 kts | 268° |
| 2026-04-24 15:01 | 51.28643 | -0.97027 | 3271 ft | 184 kts | 267° |
| 2026-04-24 15:02 | 51.28575 | -0.99053 | 3299 ft | 177 kts | 266° |
| 2026-04-24 15:02 | 51.28517 | -1.00999 | 3265 ft | 184 kts | 266° |
| 2026-04-24 15:02 | 51.28446 | -1.03025 | 3259 ft | 181 kts | 267° |
| 2026-04-24 15:02 | 51.28217 | -1.04993 | 3262 ft | 181 kts | 248° |
| 2026-04-24 15:03 | 51.27629 | -1.06771 | 3251 ft | 178 kts | 231° |
| 2026-04-24 15:03 | 51.26774 | -1.08170 | 3151 ft | 177 kts | 216° |
| 2026-04-24 15:03 | 51.25744 | -1.09122 | 2983 ft | 166 kts | 198° |
| 2026-04-24 15:03 | 51.24674 | -1.09571 | 2812 ft | 155 kts | 181° |
| 2026-04-24 15:04 | 51.23608 | -1.09571 | 2750 ft | 150 kts | 168° |
| 2026-04-24 15:04 | 51.22595 | -1.09177 | 2771 ft | 150 kts | 156° |
| 2026-04-24 15:04 | 51.21676 | -1.08419 | 2766 ft | 148 kts | 142° |
| 2026-04-24 15:04 | 51.20909 | -1.07356 | 2765 ft | 146 kts | 129° |
| 2026-04-24 15:05 | 51.20332 | -1.06083 | 2754 ft | 138 kts | 117° |
| 2026-04-24 15:05 | 51.19961 | -1.04705 | 2804 ft | 142 kts | 107° |
| 2026-04-24 15:05 | 51.19784 | -1.03187 | 2778 ft | 141 kts | 94° |
| 2026-04-24 15:05 | 51.19815 | -1.01678 | 2758 ft | 134 kts | 82° |
| 2026-04-24 15:06 | 51.20057 | -1.00170 | 2761 ft | 144 kts | 72° |
| 2026-04-24 15:06 | 51.20514 | -0.98748 | 2764 ft | 144 kts | 62° |
| 2026-04-24 15:06 | 51.20982 | -0.97365 | 2776 ft | 144 kts | 66° |
| 2026-04-24 15:06 | 51.21447 | -0.95971 | 2765 ft | 141 kts | 63° |
| 2026-04-24 15:07 | 51.21917 | -0.94612 | 2765 ft | 138 kts | 64° |
| 2026-04-24 15:07 | 51.22379 | -0.93220 | 2654 ft | 144 kts | 65° |
| 2026-04-24 15:07 | 51.22848 | -0.91809 | 2432 ft | 144 kts | 64° |
| 2026-04-24 15:07 | 51.23316 | -0.90420 | 2198 ft | 141 kts | 65° |
| 2026-04-24 15:08 | 51.23777 | -0.89028 | 1985 ft | 138 kts | 65° |
| 2026-04-24 15:08 | 51.24187 | -0.87789 | 1755 ft | 118 kts | 65° |
| 2026-04-24 15:08 | 51.24570 | -0.86668 | 1584 ft | 114 kts | 65° |
| 2026-04-24 15:08 | 51.24934 | -0.85549 | 1421 ft | 113 kts | 65° |
| 2026-04-24 15:09 | 51.25302 | -0.84466 | 1237 ft | 110 kts | 65° |
| 2026-04-24 15:09 | 51.25664 | -0.83374 | 1072 ft | 111 kts | 64° |
| 2026-04-24 15:09 | 51.26022 | -0.82295 | 885 ft | 113 kts | 65° |
| 2026-04-24 15:09 | 51.26401 | -0.81156 | 723 ft | 114 kts | 67° |
| 2026-04-24 15:10 | 51.26765 | -0.80055 | 471 ft | 110 kts | 63° |
| 2026-04-24 15:10 | 51.27124 | -0.78992 | 327 ft | 108 kts | 65° |
| 2026-04-24 15:10 | 51.27469 | -0.77967 | 221 ft | 94 kts | 65° |
| 2026-04-24 15:10 | 51.27696 | -0.77289 | 225 ft | 44 kts | 62° |
| 2026-04-24 15:11 | 51.27799 | -0.77013 | 222 ft | 19 kts | 32° |
| 2026-04-24 15:11 | 51.27911 | -0.76914 | 222 ft | 19 kts | 34° |
| 2026-04-24 15:11 | 51.27993 | -0.76826 | 225 ft | 13 kts | 34° |
| 2026-04-24 15:11 | 51.28061 | -0.76807 | 224 ft | 13 kts | 303° |
| 2026-04-24 15:12 | 51.28092 | -0.76968 | 219 ft | 15 kts | 288° |
| 2026-04-24 15:12 | 51.28168 | -0.77351 | 215 ft | 15 kts | 287° |
| 2026-04-24 15:12 | 51.28189 | -0.77461 | 221 ft | 10 kts | 288° |
| 2026-04-24 15:13 | 51.28213 | -0.77577 | 214 ft | 8 kts | 284° |
| 2026-04-24 15:13 | 51.28207 | -0.77671 | 218 ft | 10 kts | 238° |
| 2026-04-24 15:13 | 51.28147 | -0.77746 | 217 ft | 13 kts | 217° |
| 2026-04-24 15:13 | 51.28088 | -0.77776 | 216 ft | 9 kts | 150° |
| 2026-04-24 15:14 | 51.28057 | -0.77748 | 215 ft | 4 kts | 179° |
| 2026-04-24 15:14 | 51.28050 | -0.77755 | 215 ft | 2 kts | 226° |
| 2026-04-24 15:14 | 51.28056 | -0.77778 | 217 ft | 1 kts | 309° |
| 2026-04-24 15:23 | 51.28055 | -0.77777 | 217 ft | 0 kts | 309° |